Time;durP1;ratioP1;P1;durP2;ratioP2;P2;SDS_P1;SDS_P2;PMS_P1;PMS_P2;Temp;Humidity;BMP_temperature;BMP_pressure;BME280_temperature;BME280_humidity;BME280_pressure;Samples;Min_cycle;Max_cycle;Signal;HPM_P1;HPM_P2
2022/08/15 00:00:26;;;;;;;5.53;3.50;;;;;;;;;;5047131;28;20714;-66
2022/08/15 00:02:54;;;;;;;3.75;3.35;;;;;;;;;;5054412;28;20202;-66
2022/08/15 00:05:29;;;;;;;3.55;3.25;;;;;;;;;;5054448;28;20208;-66
2022/08/15 00:07:58;;;;;;;3.65;3.35;;;;;;;;;;5049370;28;20299;-66
2022/08/15 00:10:27;;;;;;;4.38;3.40;;;;;;;;;;5057022;28;20232;-66
2022/08/15 00:13:18;;;;;;;3.25;2.95;;;;;;;;;;5061433;28;20206;-66
2022/08/15 00:15:46;;;;;;;4.82;3.53;;;;;;;;;;5052965;28;20206;-66
2022/08/15 00:18:15;;;;;;;3.00;2.70;;;;;;;;;;5058445;28;20213;-66
2022/08/15 00:20:46;;;;;;;3.53;3.10;;;;;;;;;;5056290;28;20337;-66
2022/08/15 00:23:19;;;;;;;3.13;2.90;;;;;;;;;;5042685;28;20219;-66
2022/08/15 00:25:53;;;;;;;4.35;3.22;;;;;;;;;;5044843;28;20804;-65
2022/08/15 00:28:24;;;;;;;3.90;3.10;;;;;;;;;;5068139;28;20213;-66
2022/08/15 00:31:01;;;;;;;6.18;3.05;;;;;;;;;;5051668;28;20221;-65
2022/08/15 00:33:30;;;;;;;3.50;3.20;;;;;;;;;;5063020;28;20209;-66
2022/08/15 00:35:58;;;;;;;3.40;3.10;;;;;;;;;;5063513;28;20226;-65
2022/08/15 00:38:46;;;;;;;3.10;2.85;;;;;;;;;;5057836;28;20718;-65
2022/08/15 00:44:03;;;;;;;3.13;2.83;;;;;;;;;;5062754;28;20213;-66
2022/08/15 00:46:33;;;;;;;4.18;2.92;;;;;;;;;;5059517;28;20229;-65
2022/08/15 00:49:02;;;;;;;5.65;3.55;;;;;;;;;;5044012;28;20236;-66
2022/08/15 00:51:30;;;;;;;3.90;2.80;;;;;;;;;;5042223;28;20651;-67
2022/08/15 00:54:08;;;;;;;6.45;3.22;;;;;;;;;;5051338;28;20295;-66
2022/08/15 00:57:01;;;;;;;4.93;3.03;;;;;;;;;;5060690;28;20642;-66
2022/08/15 00:59:31;;;;;;;3.63;3.33;;;;;;;;;;5055632;28;20217;-66
2022/08/15 01:01:59;;;;;;;3.42;2.90;;;;;;;;;;5039170;28;20651;-66
2022/08/15 01:04:28;;;;;;;3.28;2.85;;;;;;;;;;5046213;28;20213;-66
2022/08/15 01:07:03;;;;;;;4.65;3.03;;;;;;;;;;5058965;28;20263;-66
2022/08/15 01:09:31;;;;;;;4.07;3.00;;;;;;;;;;5054977;28;20217;-64
2022/08/15 01:12:13;;;;;;;4.90;3.15;;;;;;;;;;5060902;28;20193;-64
2022/08/15 01:14:53;;;;;;;3.60;3.05;;;;;;;;;;5045520;28;20224;-65
2022/08/15 01:17:27;;;;;;;3.33;3.03;;;;;;;;;;5052482;28;20197;-64
2022/08/15 01:20:06;;;;;;;3.58;2.83;;;;;;;;;;5058185;28;20232;-64
2022/08/15 01:22:53;;;;;;;3.33;3.00;;;;;;;;;;5039935;28;20290;-64
2022/08/15 01:25:23;;;;;;;5.63;3.22;;;;;;;;;;5062152;28;20209;-66
2022/08/15 01:28:17;;;;;;;3.50;3.20;;;;;;;;;;5062585;28;20213;-66
2022/08/15 01:30:58;;;;;;;4.35;3.00;;;;;;;;;;5058558;28;20667;-66
2022/08/15 01:33:32;;;;;;;2.85;2.65;;;;;;;;;;5066657;28;20263;-67
2022/08/15 01:35:59;;;;;;;4.97;2.95;;;;;;;;;;5078578;28;20228;-64
2022/08/15 01:38:28;;;;;;;3.95;3.00;;;;;;;;;;5049197;28;20219;-64
2022/08/15 01:41:30;;;;;;;5.05;2.88;;;;;;;;;;5057218;28;20213;-66
2022/08/15 01:44:19;;;;;;;3.15;2.88;;;;;;;;;;5067223;28;20205;-65
2022/08/15 01:47:02;;;;;;;3.45;3.15;;;;;;;;;;5072720;28;20684;-67
2022/08/15 01:49:49;;;;;;;2.85;2.65;;;;;;;;;;5049841;28;20225;-65
2022/08/15 01:52:29;;;;;;;2.88;2.65;;;;;;;;;;5075044;28;20197;-66
2022/08/15 01:55:17;;;;;;;3.25;2.97;;;;;;;;;;5064452;28;20289;-66
2022/08/15 01:57:46;;;;;;;4.15;2.88;;;;;;;;;;5048318;28;20210;-66
2022/08/15 02:00:17;;;;;;;3.10;2.65;;;;;;;;;;5046483;28;20771;-66
2022/08/15 02:02:47;;;;;;;3.75;2.90;;;;;;;;;;5063438;28;20210;-66
2022/08/15 02:05:14;;;;;;;4.00;3.20;;;;;;;;;;5071721;28;20220;-66
2022/08/15 02:07:42;;;;;;;2.72;2.53;;;;;;;;;;5055143;28;20303;-66
2022/08/15 02:10:30;;;;;;;3.72;2.63;;;;;;;;;;5052903;28;20332;-66
2022/08/15 02:12:59;;;;;;;3.20;2.65;;;;;;;;;;5068876;28;20210;-66
2022/08/15 02:15:31;;;;;;;5.05;2.85;;;;;;;;;;5071877;28;20206;-66
2022/08/15 02:18:01;;;;;;;3.03;2.70;;;;;;;;;;5049501;28;20205;-66
2022/08/15 02:20:31;;;;;;;2.75;2.55;;;;;;;;;;5052362;28;20264;-65
2022/08/15 02:23:05;;;;;;;3.10;2.80;;;;;;;;;;5044441;28;20215;-69
2022/08/15 02:25:33;;;;;;;4.32;2.70;;;;;;;;;;5049581;28;20779;-66
2022/08/15 02:28:04;;;;;;;3.40;2.40;;;;;;;;;;5062771;28;20214;-66
2022/08/15 02:30:53;;;;;;;3.35;2.50;;;;;;;;;;5065257;28;20245;-66
2022/08/15 02:33:22;;;;;;;4.05;2.60;;;;;;;;;;5056010;28;20201;-66
2022/08/15 02:35:51;;;;;;;3.83;2.78;;;;;;;;;;5048009;28;20749;-65
2022/08/15 02:38:20;;;;;;;3.65;2.60;;;;;;;;;;5066443;28;20258;-66
2022/08/15 02:40:51;;;;;;;3.60;2.70;;;;;;;;;;5047596;28;20300;-67
2022/08/15 02:43:20;;;;;;;2.83;2.63;;;;;;;;;;5068932;28;20205;-66
2022/08/15 02:45:48;;;;;;;2.88;2.53;;;;;;;;;;5052958;28;20705;-66
2022/08/15 02:48:35;;;;;;;5.45;2.85;;;;;;;;;;5050282;28;21997;-66
2022/08/15 02:51:08;;;;;;;2.58;2.38;;;;;;;;;;5042391;28;20208;-65
2022/08/15 02:53:38;;;;;;;3.60;2.30;;;;;;;;;;5052069;28;20679;-66
2022/08/15 02:56:14;;;;;;;2.97;2.50;;;;;;;;;;5060864;28;20233;-65
2022/08/15 02:58:43;;;;;;;3.63;2.47;;;;;;;;;;5056047;28;20202;-66
2022/08/15 03:01:12;;;;;;;2.80;2.45;;;;;;;;;;5061935;28;20670;-65
2022/08/15 03:03:45;;;;;;;3.40;2.42;;;;;;;;;;5052969;28;20683;-66
2022/08/15 03:06:13;;;;;;;2.67;2.22;;;;;;;;;;5057336;28;20205;-66
2022/08/15 03:08:44;;;;;;;3.35;2.47;;;;;;;;;;5056259;28;20220;-67
2022/08/15 03:11:13;;;;;;;2.88;2.67;;;;;;;;;;5058733;28;20328;-66
2022/08/15 03:13:40;;;;;;;3.22;2.88;;;;;;;;;;5076379;28;20201;-66
2022/08/15 03:16:09;;;;;;;2.90;2.20;;;;;;;;;;5059267;28;20232;-66
2022/08/15 03:18:46;;;;;;;3.40;2.30;;;;;;;;;;5045373;28;20201;-66
2022/08/15 03:21:19;;;;;;;2.88;2.58;;;;;;;;;;5048570;28;20213;-66
2022/08/15 03:23:51;;;;;;;2.78;2.53;;;;;;;;;;5047302;28;20332;-66
2022/08/15 03:26:21;;;;;;;2.75;2.47;;;;;;;;;;5031400;28;20255;-67
2022/08/15 03:29:08;;;;;;;3.65;2.42;;;;;;;;;;5040215;28;20651;-67
2022/08/15 03:31:43;;;;;;;3.70;3.13;;;;;;;;;;5054703;28;21089;-67
2022/08/15 03:34:13;;;;;;;5.35;2.80;;;;;;;;;;5053743;28;20215;-67
2022/08/15 03:36:45;;;;;;;6.13;3.22;;;;;;;;;;5056752;28;20220;-67
2022/08/15 03:39:20;;;;;;;3.33;3.03;;;;;;;;;;5055944;28;20342;-67
2022/08/15 03:41:47;;;;;;;4.00;3.20;;;;;;;;;;5059683;28;20536;-67
2022/08/15 03:44:23;;;;;;;4.25;2.88;;;;;;;;;;5064936;28;20206;-67
2022/08/15 03:46:54;;;;;;;5.75;3.30;;;;;;;;;;5078292;28;20228;-67
2022/08/15 03:49:22;;;;;;;4.72;3.53;;;;;;;;;;5065363;28;20221;-68
2022/08/15 03:52:10;;;;;;;3.50;3.00;;;;;;;;;;5070830;28;20202;-67
2022/08/15 03:54:38;;;;;;;4.10;3.17;;;;;;;;;;5048361;28;20618;-67
2022/08/15 03:57:07;;;;;;;3.55;3.25;;;;;;;;;;5052707;28;20205;-67
2022/08/15 03:59:34;;;;;;;3.92;3.13;;;;;;;;;;5065644;28;20308;-67
2022/08/15 04:02:15;;;;;;;3.13;2.90;;;;;;;;;;5066478;28;20212;-67
2022/08/15 04:04:57;;;;;;;5.10;3.20;;;;;;;;;;5057048;28;20229;-67
2022/08/15 04:07:26;;;;;;;4.25;3.58;;;;;;;;;;5044566;28;20212;-67
2022/08/15 04:10:09;;;;;;;3.25;2.95;;;;;;;;;;5048479;28;20230;-67
2022/08/15 04:12:57;;;;;;;3.30;3.10;;;;;;;;;;5044922;28;20233;-67
2022/08/15 04:15:27;;;;;;;3.38;3.08;;;;;;;;;;5053881;28;20232;-67
2022/08/15 04:17:57;;;;;;;3.72;3.30;;;;;;;;;;5063995;28;20250;-67
2022/08/15 04:20:28;;;;;;;3.83;3.42;;;;;;;;;;5051139;28;20594;-67
2022/08/15 04:22:59;;;;;;;3.83;3.53;;;;;;;;;;5061905;28;20201;-67
2022/08/15 04:25:40;;;;;;;3.47;3.17;;;;;;;;;;5047511;28;20220;-67
2022/08/15 04:28:22;;;;;;;3.90;3.08;;;;;;;;;;5061762;28;20237;-67
2022/08/15 04:31:10;;;;;;;4.03;3.65;;;;;;;;;;5073856;28;21434;-67
2022/08/15 04:33:40;;;;;;;4.00;3.60;;;;;;;;;;5051399;28;20740;-67
2022/08/15 04:36:28;;;;;;;3.90;3.38;;;;;;;;;;5062110;28;20306;-67
2022/08/15 04:39:00;;;;;;;3.97;3.50;;;;;;;;;;5052377;28;20229;-67
2022/08/15 04:41:31;;;;;;;3.80;3.50;;;;;;;;;;5047659;28;20582;-67
2022/08/15 04:44:03;;;;;;;4.35;3.28;;;;;;;;;;5060171;28;20201;-67
2022/08/15 04:46:31;;;;;;;4.97;3.60;;;;;;;;;;5063168;28;20937;-67
2022/08/15 04:48:59;;;;;;;4.63;3.65;;;;;;;;;;5062667;28;20233;-67
2022/08/15 04:51:27;;;;;;;4.30;3.85;;;;;;;;;;5053101;28;20201;-67
2022/08/15 04:54:05;;;;;;;4.15;3.60;;;;;;;;;;5047543;28;20208;-67
2022/08/15 04:56:32;;;;;;;5.28;3.50;;;;;;;;;;5059000;28;20598;-67
2022/08/15 04:59:18;;;;;;;3.67;3.38;;;;;;;;;;5047253;28;20229;-67
2022/08/15 05:02:08;;;;;;;3.85;3.55;;;;;;;;;;5051209;28;20197;-67
2022/08/15 05:04:55;;;;;;;3.80;3.50;;;;;;;;;;5055892;28;20210;-67
2022/08/15 05:07:23;;;;;;;4.30;3.90;;;;;;;;;;5064203;28;20213;-67
2022/08/15 05:09:57;;;;;;;3.97;3.60;;;;;;;;;;5063762;28;20263;-67
2022/08/15 05:12:39;;;;;;;3.70;3.40;;;;;;;;;;5062094;28;20202;-67
2022/08/15 05:15:08;;;;;;;3.97;3.58;;;;;;;;;;5061574;28;20231;-67
2022/08/15 05:17:37;;;;;;;4.10;3.55;;;;;;;;;;5052042;28;20293;-68
2022/08/15 05:20:23;;;;;;;3.80;3.50;;;;;;;;;;5062314;28;20728;-67
2022/08/15 05:22:55;;;;;;;4.75;3.60;;;;;;;;;;5048993;28;20259;-67
2022/08/15 05:25:28;;;;;;;4.45;3.80;;;;;;;;;;5071999;28;21403;-67
2022/08/15 05:27:56;;;;;;;3.70;3.40;;;;;;;;;;5059640;28;20212;-68
2022/08/15 05:30:24;;;;;;;4.43;4.03;;;;;;;;;;5064299;28;20728;-68
2022/08/15 05:33:01;;;;;;;4.28;3.88;;;;;;;;;;5048148;28;20208;-66
2022/08/15 05:35:30;;;;;;;3.90;3.50;;;;;;;;;;5037841;28;20248;-66
2022/08/15 05:38:03;;;;;;;4.43;4.03;;;;;;;;;;5048497;28;20300;-67
2022/08/15 05:41:00;;;;;;;5.78;4.03;;;;;;;;;;5055175;28;20214;-67
2022/08/15 05:43:40;;;;;;;5.00;4.50;;;;;;;;;;5060696;28;20628;-67
2022/08/15 05:46:24;;;;;;;5.43;4.20;;;;;;;;;;5046364;28;20776;-67
2022/08/15 05:49:05;;;;;;;4.97;3.95;;;;;;;;;;5047258;28;20287;-67
2022/08/15 05:51:40;;;;;;;4.93;3.80;;;;;;;;;;5043636;28;20297;-67
2022/08/15 05:54:31;;;;;;;3.80;3.50;;;;;;;;;;5058144;28;20197;-67
2022/08/15 05:57:09;;;;;;;6.28;3.97;;;;;;;;;;5043075;28;20232;-66
2022/08/15 05:59:41;;;;;;;3.90;3.60;;;;;;;;;;5064860;28;20702;-67
2022/08/15 06:02:18;;;;;;;5.82;3.80;;;;;;;;;;5048576;28;20208;-68
2022/08/15 06:05:10;;;;;;;4.75;4.25;;;;;;;;;;5056074;28;20200;-67
2022/08/15 06:07:40;;;;;;;6.25;4.00;;;;;;;;;;5068689;28;20290;-67
2022/08/15 06:10:25;;;;;;;4.20;3.80;;;;;;;;;;5062970;28;20317;-67
2022/08/15 06:13:16;;;;;;;4.05;3.63;;;;;;;;;;5067122;28;20744;-67
2022/08/15 06:15:47;;;;;;;4.82;3.90;;;;;;;;;;5062999;28;20229;-67
2022/08/15 06:18:23;;;;;;;4.70;4.25;;;;;;;;;;5059779;28;20196;-67
2022/08/15 06:20:53;;;;;;;5.05;3.90;;;;;;;;;;5083017;28;20252;-67
2022/08/15 06:23:41;;;;;;;4.43;3.83;;;;;;;;;;5050209;28;20213;-67
2022/08/15 06:26:31;;;;;;;4.30;3.42;;;;;;;;;;5061244;28;20209;-67
2022/08/15 06:29:07;;;;;;;3.90;3.60;;;;;;;;;;5063315;28;20333;-67
2022/08/15 06:31:37;;;;;;;3.17;2.90;;;;;;;;;;5063698;28;20209;-67
2022/08/15 06:34:26;;;;;;;3.90;2.97;;;;;;;;;;5050807;28;20609;-67
2022/08/15 06:37:16;;;;;;;3.80;3.08;;;;;;;;;;5062980;28;20711;-67
2022/08/15 06:39:45;;;;;;;2.97;2.78;;;;;;;;;;5066270;28;20217;-67
2022/08/15 06:42:34;;;;;;;3.20;3.00;;;;;;;;;;5067784;28;20211;-67
2022/08/15 06:45:18;;;;;;;3.30;3.00;;;;;;;;;;5051913;28;20209;-67
2022/08/15 06:47:46;;;;;;;3.78;2.75;;;;;;;;;;5056039;28;20227;-67
2022/08/15 06:50:24;;;;;;;3.15;2.88;;;;;;;;;;5055857;28;20229;-68
2022/08/15 06:52:57;;;;;;;3.30;2.90;;;;;;;;;;5062079;28;20255;-67
2022/08/15 06:55:29;;;;;;;3.10;2.80;;;;;;;;;;5066291;28;20225;-67
2022/08/15 06:58:06;;;;;;;4.43;2.85;;;;;;;;;;5051625;28;20574;-67
2022/08/15 07:00:57;;;;;;;2.92;2.72;;;;;;;;;;5065365;28;20245;-67
2022/08/15 07:03:30;;;;;;;3.00;2.70;;;;;;;;;;5055936;28;20200;-67
2022/08/15 07:06:02;;;;;;;2.78;2.58;;;;;;;;;;5067272;28;20200;-67
2022/08/15 07:08:34;;;;;;;3.38;3.00;;;;;;;;;;5069228;28;20568;-66
2022/08/15 07:11:09;;;;;;;3.40;3.10;;;;;;;;;;5072770;28;20208;-67
2022/08/15 07:13:46;;;;;;;3.38;3.05;;;;;;;;;;5055732;28;20545;-65
2022/08/15 07:16:38;;;;;;;3.42;2.80;;;;;;;;;;5061172;28;20226;-67
2022/08/15 07:19:05;;;;;;;2.90;2.65;;;;;;;;;;5065874;28;20228;-68
2022/08/15 07:21:33;;;;;;;2.47;2.28;;;;;;;;;;5069473;28;20193;-67
2022/08/15 07:24:19;;;;;;;3.45;2.58;;;;;;;;;;5072460;28;20650;-67
2022/08/15 07:27:02;;;;;;;2.80;2.58;;;;;;;;;;5063663;28;20201;-67
2022/08/15 07:29:39;;;;;;;2.90;2.70;;;;;;;;;;5065741;28;20233;-67
2022/08/15 07:32:13;;;;;;;2.85;2.40;;;;;;;;;;5049397;28;20305;-67
2022/08/15 07:35:06;;;;;;;2.55;2.35;;;;;;;;;;5075241;28;20236;-67
2022/08/15 07:37:38;;;;;;;2.58;2.38;;;;;;;;;;5063766;28;20576;-68
2022/08/15 07:40:07;;;;;;;3.78;2.25;;;;;;;;;;5050197;28;20622;-67
2022/08/15 07:42:40;;;;;;;2.88;2.42;;;;;;;;;;5051222;28;20248;-67
2022/08/15 07:45:31;;;;;;;2.47;2.28;;;;;;;;;;5062942;28;20296;-67
2022/08/15 07:48:04;;;;;;;2.30;2.10;;;;;;;;;;5066883;28;20204;-67
2022/08/15 07:50:34;;;;;;;2.80;2.30;;;;;;;;;;5049057;28;20287;-67
2022/08/15 07:53:10;;;;;;;2.03;1.92;;;;;;;;;;5060572;28;20252;-67
2022/08/15 07:56:04;;;;;;;2.78;2.20;;;;;;;;;;5044907;28;20698;-68
2022/08/15 07:58:53;;;;;;;2.20;2.00;;;;;;;;;;5054421;28;20201;-67
2022/08/15 08:01:24;;;;;;;1.70;1.60;;;;;;;;;;5062584;28;20201;-68
2022/08/15 08:04:01;;;;;;;2.05;1.95;;;;;;;;;;5067220;28;20283;-67
2022/08/15 08:06:48;;;;;;;2.33;2.13;;;;;;;;;;5072943;28;20656;-67
2022/08/15 08:09:36;;;;;;;3.13;2.13;;;;;;;;;;5067315;28;20684;-67
2022/08/15 08:12:13;;;;;;;2.03;1.92;;;;;;;;;;5065065;28;22315;-67
2022/08/15 08:15:05;;;;;;;2.00;1.80;;;;;;;;;;5054967;28;20212;-67
2022/08/15 08:17:39;;;;;;;1.98;1.88;;;;;;;;;;5058945;28;20239;-67
2022/08/15 08:20:14;;;;;;;2.08;1.98;;;;;;;;;;5063421;28;20316;-67
2022/08/15 08:22:42;;;;;;;2.17;2.08;;;;;;;;;;5066098;28;20201;-67
2022/08/15 08:25:25;;;;;;;2.05;1.85;;;;;;;;;;5065257;28;20258;-67
2022/08/15 08:28:22;;;;;;;2.20;2.00;;;;;;;;;;5079742;28;20212;-68
2022/08/15 08:30:58;;;;;;;1.80;1.70;;;;;;;;;;5077526;28;20689;-68
2022/08/15 08:33:28;;;;;;;2.42;1.73;;;;;;;;;;5058724;28;20205;-67
2022/08/15 08:36:06;;;;;;;1.63;1.48;;;;;;;;;;5048216;28;20213;-67
2022/08/15 08:39:13;;;;;;;1.63;1.52;;;;;;;;;;5052675;28;20270;-67
2022/08/15 08:41:42;;;;;;;1.48;1.35;;;;;;;;;;5057727;28;20209;-67
2022/08/15 08:44:24;;;;;;;1.50;1.40;;;;;;;;;;5062196;28;20205;-68
2022/08/15 08:46:55;;;;;;;1.70;1.60;;;;;;;;;;5051612;28;20219;-67
2022/08/15 08:49:41;;;;;;;3.17;2.60;;;;;;;;;;5049407;28;20308;-68
2022/08/15 08:52:45;;;;;;;1.60;1.50;;;;;;;;;;5049365;28;20238;-68
2022/08/15 08:55:24;;;;;;;2.35;1.40;;;;;;;;;;5043874;28;20217;-68
2022/08/15 08:58:15;;;;;;;1.48;1.35;;;;;;;;;;5055550;28;20335;-68
2022/08/15 09:01:06;;;;;;;1.63;1.50;;;;;;;;;;5046457;28;20270;-68
2022/08/15 09:03:39;;;;;;;2.25;1.52;;;;;;;;;;5065751;28;20655;-68
2022/08/15 09:06:11;;;;;;;2.30;2.10;;;;;;;;;;5060355;28;20228;-67
2022/08/15 09:08:58;;;;;;;2.67;1.90;;;;;;;;;;5072480;28;20198;-67
2022/08/15 09:11:29;;;;;;;1.50;1.40;;;;;;;;;;5052346;28;20213;-67
2022/08/15 09:13:57;;;;;;;1.60;1.50;;;;;;;;;;5076085;28;20198;-67
2022/08/15 09:16:35;;;;;;;1.55;1.45;;;;;;;;;;5048299;28;20717;-68
2022/08/15 09:19:10;;;;;;;1.70;1.33;;;;;;;;;;5041838;28;20221;-67
2022/08/15 09:21:39;;;;;;;1.55;1.40;;;;;;;;;;5064637;28;20210;-67
2022/08/15 09:24:11;;;;;;;1.38;1.27;;;;;;;;;;5041384;28;20625;-67
2022/08/15 09:27:12;;;;;;;1.45;1.42;;;;;;;;;;5044354;28;20206;-67
2022/08/15 09:29:45;;;;;;;1.40;1.25;;;;;;;;;;5058277;28;20521;-67
2022/08/15 09:32:29;;;;;;;1.30;1.30;;;;;;;;;;5065846;28;20336;-68
2022/08/15 09:34:59;;;;;;;3.30;1.52;;;;;;;;;;5063604;28;20620;-68
2022/08/15 09:37:45;;;;;;;1.70;1.60;;;;;;;;;;5048512;28;20245;-67
2022/08/15 09:40:45;;;;;;;2.15;1.80;;;;;;;;;;5059093;28;20229;-67
2022/08/15 09:43:35;;;;;;;1.52;1.42;;;;;;;;;;5022463;28;20250;-67
2022/08/15 09:46:12;;;;;;;1.70;1.60;;;;;;;;;;5066862;28;20212;-68
2022/08/15 09:49:06;;;;;;;1.83;1.40;;;;;;;;;;5067264;28;20241;-67
2022/08/15 09:51:45;;;;;;;2.47;1.50;;;;;;;;;;5058847;28;20204;-67
2022/08/15 09:54:23;;;;;;;1.40;1.40;;;;;;;;;;5045572;28;20301;-67
2022/08/15 09:57:19;;;;;;;1.20;1.20;;;;;;;;;;5055889;28;20316;-66
2022/08/15 09:59:58;;;;;;;1.88;1.35;;;;;;;;;;5054800;28;20230;-67
2022/08/15 10:02:32;;;;;;;1.20;1.20;;;;;;;;;;5060839;28;20663;-67
2022/08/15 10:05:25;;;;;;;1.70;1.60;;;;;;;;;;5070035;28;20213;-67
2022/08/15 10:08:05;;;;;;;1.60;1.50;;;;;;;;;;5072064;28;20205;-66
2022/08/15 10:10:36;;;;;;;1.40;1.40;;;;;;;;;;5065703;28;20248;-67
2022/08/15 10:13:19;;;;;;;3.83;1.67;;;;;;;;;;5056376;28;20190;-67
2022/08/15 10:15:47;;;;;;;1.90;1.40;;;;;;;;;;5075810;28;20747;-67
2022/08/15 10:18:26;;;;;;;1.55;1.50;;;;;;;;;;5061855;28;20205;-67
2022/08/15 10:20:57;;;;;;;1.70;1.60;;;;;;;;;;5055315;28;20321;-66
2022/08/15 10:23:31;;;;;;;1.45;1.40;;;;;;;;;;5063477;28;20244;-67
2022/08/15 10:26:13;;;;;;;1.80;1.70;;;;;;;;;;5062927;28;20204;-67
2022/08/15 10:29:09;;;;;;;1.70;1.60;;;;;;;;;;5068974;28;20221;-66
2022/08/15 10:31:41;;;;;;;1.77;1.60;;;;;;;;;;5059560;28;20213;-67
2022/08/15 10:34:37;;;;;;;1.70;1.60;;;;;;;;;;5042418;28;20843;-67
2022/08/15 10:37:15;;;;;;;1.70;1.60;;;;;;;;;;5066805;28;20225;-68
2022/08/15 10:39:49;;;;;;;1.60;1.50;;;;;;;;;;5072433;28;20228;-67
2022/08/15 10:42:26;;;;;;;1.90;1.80;;;;;;;;;;5048842;28;20240;-68
2022/08/15 10:44:58;;;;;;;1.95;1.85;;;;;;;;;;5068511;28;20205;-68
2022/08/15 10:47:49;;;;;;;1.98;1.48;;;;;;;;;;5062586;28;20216;-68
2022/08/15 10:50:44;;;;;;;3.30;1.67;;;;;;;;;;5060751;28;20283;-68
2022/08/15 10:53:51;;;;;;;1.73;1.63;;;;;;;;;;5051063;28;20275;-67
2022/08/15 10:56:24;;;;;;;2.17;1.98;;;;;;;;;;5000242;28;20218;-67
2022/08/15 10:59:19;;;;;;;1.90;1.80;;;;;;;;;;5002940;28;20227;-67
2022/08/15 11:01:51;;;;;;;2.83;1.77;;;;;;;;;;5035377;28;20238;-66
2022/08/15 11:04:30;;;;;;;2.03;1.92;;;;;;;;;;5055054;28;21046;-66
2022/08/15 11:07:26;;;;;;;2.13;1.60;;;;;;;;;;5065187;28;20270;-67
2022/08/15 11:09:57;;;;;;;2.40;2.30;;;;;;;;;;5050303;28;20232;-67
2022/08/15 11:12:31;;;;;;;2.33;2.15;;;;;;;;;;5068901;28;20201;-66
2022/08/15 11:15:04;;;;;;;2.92;1.90;;;;;;;;;;5051535;28;20221;-66
2022/08/15 11:18:08;;;;;;;3.35;1.88;;;;;;;;;;5067675;28;20229;-67
2022/08/15 11:20:52;;;;;;;1.90;1.77;;;;;;;;;;5058656;28;20225;-67
2022/08/15 11:23:39;;;;;;;2.25;1.92;;;;;;;;;;5050060;28;20802;-66
2022/08/15 11:26:10;;;;;;;2.00;1.90;;;;;;;;;;5066231;28;20216;-66
2022/08/15 11:28:55;;;;;;;2.25;2.05;;;;;;;;;;5076542;28;20194;-67
2022/08/15 11:31:24;;;;;;;1.98;1.88;;;;;;;;;;5049758;28;20989;-66
2022/08/15 11:34:04;;;;;;;2.78;1.88;;;;;;;;;;5055373;28;20226;-66
2022/08/15 11:36:53;;;;;;;1.90;1.77;;;;;;;;;;5066020;28;20217;-66
2022/08/15 11:39:22;;;;;;;2.60;1.73;;;;;;;;;;5063016;28;20220;-66
2022/08/15 11:41:58;;;;;;;2.20;2.00;;;;;;;;;;5065677;28;20239;-67
2022/08/15 11:44:35;;;;;;;4.47;2.78;;;;;;;;;;5067755;28;20209;-67
2022/08/15 11:47:05;;;;;;;2.58;2.30;;;;;;;;;;5069884;28;20208;-67
2022/08/15 11:49:34;;;;;;;2.30;2.10;;;;;;;;;;5048901;28;20283;-67
2022/08/15 11:52:06;;;;;;;3.22;1.90;;;;;;;;;;5061961;28;20206;-67
2022/08/15 11:55:10;;;;;;;1.92;1.80;;;;;;;;;;5063029;28;20201;-66
2022/08/15 11:57:47;;;;;;;2.20;1.85;;;;;;;;;;5049673;28;21444;-67
2022/08/15 12:00:30;;;;;;;3.70;1.98;;;;;;;;;;5063422;28;20229;-67
2022/08/15 12:03:15;;;;;;;2.40;2.05;;;;;;;;;;5060544;28;20565;-67
2022/08/15 12:06:21;;;;;;;2.35;2.00;;;;;;;;;;5055548;28;20628;-67
2022/08/15 12:09:09;;;;;;;2.30;2.15;;;;;;;;;;5068217;28;20352;-67
2022/08/15 12:11:42;;;;;;;2.00;1.90;;;;;;;;;;5062251;28;20213;-67
2022/08/15 12:14:14;;;;;;;2.20;1.92;;;;;;;;;;5080157;28;20240;-67
2022/08/15 12:16:56;;;;;;;2.60;2.00;;;;;;;;;;5060358;28;20221;-67
2022/08/15 12:19:35;;;;;;;2.30;2.20;;;;;;;;;;5061145;28;20243;-67
2022/08/15 12:22:29;;;;;;;5.07;2.38;;;;;;;;;;5062108;28;20198;-67
2022/08/15 12:25:18;;;;;;;3.63;2.10;;;;;;;;;;5066349;28;20232;-67
2022/08/15 12:28:05;;;;;;;2.33;2.13;;;;;;;;;;5075055;28;20706;-67
2022/08/15 12:31:01;;;;;;;2.50;2.30;;;;;;;;;;5046440;28;20609;-67
2022/08/15 12:33:31;;;;;;;4.20;2.45;;;;;;;;;;5074191;28;20209;-67
2022/08/15 12:36:02;;;;;;;2.50;2.15;;;;;;;;;;5037302;28;20210;-67
2022/08/15 12:38:31;;;;;;;2.95;2.33;;;;;;;;;;5062025;28;21798;-67
2022/08/15 12:41:00;;;;;;;2.47;2.28;;;;;;;;;;5067359;28;20676;-67
2022/08/15 12:43:48;;;;;;;3.65;2.50;;;;;;;;;;5042970;28;21355;-67
2022/08/15 12:46:16;;;;;;;3.17;2.58;;;;;;;;;;5059811;28;20221;-67
2022/08/15 12:48:47;;;;;;;3.00;2.78;;;;;;;;;;5057176;28;20210;-67
2022/08/15 12:51:26;;;;;;;2.50;2.30;;;;;;;;;;5067505;28;20153;-67
2022/08/15 12:53:56;;;;;;;4.03;2.60;;;;;;;;;;5054127;28;20210;-67
2022/08/15 12:56:23;;;;;;;2.88;2.67;;;;;;;;;;5065889;28;20890;-67
2022/08/15 12:59:11;;;;;;;2.45;2.28;;;;;;;;;;5048673;28;20225;-67
2022/08/15 13:01:40;;;;;;;3.50;2.55;;;;;;;;;;5062498;28;20220;-67
2022/08/15 13:04:25;;;;;;;2.88;2.63;;;;;;;;;;5064843;28;20200;-67
2022/08/15 13:07:13;;;;;;;3.13;2.33;;;;;;;;;;5068373;28;20209;-67
2022/08/15 13:09:41;;;;;;;2.58;2.38;;;;;;;;;;5058623;28;20228;-67
2022/08/15 13:12:08;;;;;;;3.75;2.50;;;;;;;;;;5050975;28;20202;-67
2022/08/15 13:14:44;;;;;;;2.90;2.50;;;;;;;;;;5055842;28;20208;-67
2022/08/15 13:17:15;;;;;;;5.22;3.08;;;;;;;;;;5055682;28;20282;-67
2022/08/15 13:25:35;;;;;;;8.35;3.88;;;;;;;;;;5061745;28;20652;-67
2022/08/15 13:28:08;;;;;;;7.78;3.55;;;;;;;;;;5043573;28;20752;-66
2022/08/15 13:30:38;;;;;;;5.07;3.50;;;;;;;;;;5048347;28;20229;-67
2022/08/15 13:33:26;;;;;;;3.45;3.10;;;;;;;;;;5051299;28;20716;-67
2022/08/15 13:35:57;;;;;;;3.53;3.22;;;;;;;;;;5056978;28;20231;-67
2022/08/15 13:38:28;;;;;;;3.60;3.28;;;;;;;;;;5056149;28;20267;-67
2022/08/15 13:40:58;;;;;;;3.90;3.40;;;;;;;;;;5053471;28;20216;-67
2022/08/15 13:43:32;;;;;;;4.53;3.13;;;;;;;;;;5058842;28;20195;-67
2022/08/15 13:46:21;;;;;;;6.07;3.20;;;;;;;;;;5056048;28;20221;-67
2022/08/15 13:48:59;;;;;;;3.55;2.55;;;;;;;;;;5061551;28;20229;-67
2022/08/15 13:51:42;;;;;;;3.30;2.40;;;;;;;;;;5045188;28;20202;-67
2022/08/15 13:54:30;;;;;;;2.90;2.30;;;;;;;;;;5046528;28;20205;-67
2022/08/15 13:57:15;;;;;;;2.90;2.10;;;;;;;;;;5065599;28;20322;-67
2022/08/15 13:59:42;;;;;;;2.42;1.90;;;;;;;;;;5048497;28;20267;-67
2022/08/15 14:02:11;;;;;;;2.47;2.28;;;;;;;;;;5055869;28;20209;-66
2022/08/15 14:04:59;;;;;;;2.80;2.10;;;;;;;;;;5041868;28;21180;-67
2022/08/15 14:07:31;;;;;;;2.40;2.20;;;;;;;;;;5056827;28;20197;-66
2022/08/15 14:10:21;;;;;;;2.30;2.10;;;;;;;;;;5065742;28;20302;-66
2022/08/15 14:13:09;;;;;;;3.03;1.90;;;;;;;;;;5058444;28;20218;-67
2022/08/15 14:15:44;;;;;;;2.30;2.10;;;;;;;;;;5040450;28;20193;-67
2022/08/15 14:18:36;;;;;;;2.78;2.20;;;;;;;;;;5044685;28;20236;-67
2022/08/15 14:21:21;;;;;;;2.17;1.98;;;;;;;;;;5053107;28;20201;-67
2022/08/15 14:23:58;;;;;;;2.13;1.90;;;;;;;;;;5052995;28;20210;-65
2022/08/15 14:26:28;;;;;;;3.10;2.30;;;;;;;;;;5042364;28;20665;-66
2022/08/15 14:29:22;;;;;;;3.28;2.08;;;;;;;;;;5057504;28;20221;-67
2022/08/15 14:32:11;;;;;;;2.85;2.13;;;;;;;;;;5046227;28;20343;-67
2022/08/15 14:35:00;;;;;;;2.20;2.00;;;;;;;;;;5052541;28;20612;-68
2022/08/15 14:37:27;;;;;;;2.53;2.05;;;;;;;;;;5056975;28;20224;-67
2022/08/15 14:40:20;;;;;;;2.53;2.00;;;;;;;;;;5048116;28;20788;-67
2022/08/15 14:42:50;;;;;;;4.35;2.30;;;;;;;;;;5055189;28;20291;-67
2022/08/15 14:45:25;;;;;;;4.05;2.50;;;;;;;;;;5048778;28;20216;-67
2022/08/15 14:48:14;;;;;;;4.80;2.50;;;;;;;;;;5057553;28;20628;-65
2022/08/15 14:51:02;;;;;;;5.13;2.58;;;;;;;;;;5062086;28;20205;-68
2022/08/15 14:53:51;;;;;;;10.25;3.65;;;;;;;;;;5049305;28;20263;-67
2022/08/15 14:56:20;;;;;;;4.97;2.50;;;;;;;;;;5054196;28;20242;-68
2022/08/15 14:58:58;;;;;;;4.22;2.45;;;;;;;;;;5060588;28;20239;-66
2022/08/15 15:01:26;;;;;;;6.05;2.38;;;;;;;;;;5062996;28;20206;-68
2022/08/15 15:04:14;;;;;;;5.70;3.20;;;;;;;;;;5064176;28;20205;-67
2022/08/15 15:06:47;;;;;;;3.55;2.50;;;;;;;;;;5055559;28;20225;-68
2022/08/15 15:09:16;;;;;;;3.78;2.97;;;;;;;;;;5055313;28;20608;-67
2022/08/15 15:11:46;;;;;;;3.83;2.58;;;;;;;;;;5060002;28;20201;-67
2022/08/15 15:14:20;;;;;;;4.95;3.20;;;;;;;;;;5050800;28;20273;-67
2022/08/15 15:16:52;;;;;;;3.80;3.25;;;;;;;;;;5052393;28;20213;-65
2022/08/15 15:19:23;;;;;;;4.53;2.95;;;;;;;;;;5059137;28;20248;-65
2022/08/15 15:22:07;;;;;;;4.20;2.80;;;;;;;;;;5051341;28;20875;-65
2022/08/15 15:24:42;;;;;;;4.22;3.17;;;;;;;;;;5052688;28;20695;-63
2022/08/15 15:27:10;;;;;;;7.15;3.40;;;;;;;;;;5041360;28;20202;-67
2022/08/15 15:29:46;;;;;;;3.53;3.08;;;;;;;;;;5046184;28;22250;-66
2022/08/15 15:32:20;;;;;;;4.70;2.90;;;;;;;;;;5044997;28;20201;-65
2022/08/15 15:34:59;;;;;;;5.45;3.03;;;;;;;;;;5044653;28;20668;-67
2022/08/15 15:37:28;;;;;;;2.88;2.58;;;;;;;;;;5046509;28;20214;-66
2022/08/15 15:39:56;;;;;;;3.75;2.60;;;;;;;;;;5034518;28;20709;-66
2022/08/15 15:42:24;;;;;;;4.63;3.10;;;;;;;;;;5037423;28;20610;-65
2022/08/15 15:45:00;;;;;;;2.72;2.47;;;;;;;;;;5053988;28;20308;-65
2022/08/15 15:47:28;;;;;;;2.47;2.28;;;;;;;;;;5036823;28;20221;-65
2022/08/15 15:50:17;;;;;;;3.00;2.50;;;;;;;;;;5044674;28;20223;-66
2022/08/15 15:53:02;;;;;;;3.05;2.45;;;;;;;;;;5037322;28;20212;-66